createdAt,value
2018-09-03T00:01:40.568Z,23.40
2018-09-03T00:04:08.126Z,28.00
2018-09-03T00:06:35.640Z,29.80
2018-09-03T00:09:04.146Z,24.43
2018-09-03T00:11:31.666Z,26.10
2018-09-03T00:13:59.202Z,24.27
2018-09-03T00:16:26.751Z,25.20
2018-09-03T00:18:54.343Z,28.50
2018-09-03T00:21:21.896Z,25.57
2018-09-03T00:23:49.409Z,29.90
2018-09-03T00:26:16.933Z,23.63
2018-09-03T00:28:44.453Z,28.53
2018-09-03T00:31:17.702Z,29.60
2018-09-03T00:34:53.588Z,24.97
2018-09-03T00:37:26.763Z,30.70
2018-09-03T00:39:59.922Z,30.20
2018-09-03T00:42:33.271Z,33.33
2018-09-03T00:45:06.480Z,26.87
2018-09-03T00:47:34.021Z,27.23
2018-09-03T00:50:01.606Z,33.70
2018-09-03T00:52:29.166Z,27.90
2018-09-03T00:54:56.790Z,30.40
2018-09-03T00:57:24.333Z,29.17
2018-09-03T00:59:51.867Z,33.67
2018-09-03T01:02:19.393Z,28.27
2018-09-03T01:04:46.927Z,30.50
2018-09-03T01:07:14.497Z,27.20
2018-09-03T01:09:41.995Z,31.13
2018-09-03T01:12:09.610Z,26.80
2018-09-03T01:14:37.142Z,29.40
2018-09-03T01:17:04.737Z,32.53
2018-09-03T01:19:32.279Z,29.73
2018-09-03T01:21:59.853Z,30.13
2018-09-03T01:24:27.369Z,30.70
2018-09-03T01:26:54.898Z,32.00
2018-09-03T01:29:22.435Z,35.57
2018-09-03T01:31:54.100Z,35.73
2018-09-03T01:34:22.465Z,40.53
2018-09-03T01:36:50.069Z,35.37
2018-09-03T01:39:17.604Z,31.17
2018-09-03T01:41:45.162Z,36.53
2018-09-03T01:44:12.700Z,32.60
2018-09-03T01:46:40.269Z,45.70
2018-09-03T01:49:07.828Z,33.07
2018-09-03T01:51:35.346Z,39.53
2018-09-03T01:54:02.907Z,29.37
2018-09-03T01:56:30.426Z,31.83
2018-09-03T01:58:57.966Z,39.80
2018-09-03T02:01:25.502Z,29.97
2018-09-03T02:03:53.026Z,31.47
2018-09-03T02:06:20.594Z,32.47
2018-09-03T02:08:48.103Z,35.33
2018-09-03T02:11:15.759Z,32.93
2018-09-03T02:13:43.366Z,28.17
2018-09-03T02:16:10.960Z,29.83
2018-09-03T02:18:39.004Z,31.20
2018-09-03T02:21:06.844Z,34.83
2018-09-03T02:23:34.406Z,40.27
2018-09-03T02:26:02.004Z,37.13
2018-09-03T02:28:29.598Z,36.73
2018-09-03T02:30:57.174Z,39.00
2018-09-03T02:33:24.790Z,38.13
2018-09-03T02:35:52.349Z,40.23
2018-09-03T02:38:19.921Z,35.30
2018-09-03T02:40:47.464Z,47.23
2018-09-03T02:43:15.038Z,34.00
2018-09-03T02:45:42.682Z,34.40
2018-09-03T02:48:10.221Z,38.90
2018-09-03T02:50:37.808Z,34.40
2018-09-03T02:53:05.454Z,37.10
2018-09-03T02:55:33.067Z,33.90
2018-09-03T02:58:00.617Z,41.67
2018-09-03T03:00:28.160Z,35.60
2018-09-03T03:02:57.137Z,32.90
2018-09-03T03:05:24.861Z,32.67
2018-09-03T03:07:52.433Z,36.20
2018-09-03T03:10:19.970Z,41.50
2018-09-03T03:12:47.505Z,32.80
2018-09-03T03:15:15.139Z,32.70
2018-09-03T03:17:42.693Z,31.87
2018-09-03T03:20:10.264Z,39.70
2018-09-03T03:22:37.804Z,36.87
2018-09-03T03:25:05.573Z,38.40
2018-09-03T03:27:33.153Z,37.27
2018-09-03T03:30:00.718Z,39.10
2018-09-03T03:32:28.271Z,37.00
2018-09-03T03:34:55.779Z,40.60
2018-09-03T03:37:23.301Z,41.40
2018-09-03T03:39:50.824Z,38.10
2018-09-03T03:42:18.452Z,39.63
2018-09-03T03:44:45.989Z,38.20
2018-09-03T03:47:13.573Z,37.57
2018-09-03T03:49:41.162Z,39.33
2018-09-03T03:52:08.681Z,33.53
2018-09-03T03:54:36.210Z,35.93
2018-09-03T03:57:03.728Z,43.50
2018-09-03T03:59:31.296Z,33.03
2018-09-03T04:01:58.873Z,36.93
2018-09-03T04:04:26.436Z,36.97
2018-09-03T04:06:53.996Z,36.60
2018-09-03T04:09:21.538Z,38.57
2018-09-03T04:11:49.046Z,40.10
2018-09-03T04:14:16.603Z,36.03
2018-09-03T04:16:44.137Z,40.07
2018-09-03T04:19:11.700Z,34.03
2018-09-03T04:21:39.266Z,36.07
2018-09-03T04:24:06.864Z,34.20
2018-09-03T04:26:34.422Z,39.57
2018-09-03T04:29:01.998Z,33.90
2018-09-03T04:31:29.542Z,30.33
2018-09-03T04:33:57.050Z,45.13
2018-09-03T04:36:24.648Z,48.50
2018-09-03T04:38:52.239Z,48.10
2018-09-03T04:41:19.822Z,37.70
2018-09-03T04:43:47.333Z,39.23
2018-09-03T04:46:14.914Z,49.13
2018-09-03T04:48:42.456Z,41.43
2018-09-03T04:51:10.007Z,43.87
2018-09-03T04:53:37.534Z,43.83
2018-09-03T04:56:05.150Z,45.37
2018-09-03T04:58:32.705Z,52.37
2018-09-03T05:01:00.281Z,51.77
2018-09-03T05:03:27.827Z,46.07
2018-09-03T05:05:55.424Z,46.33
2018-09-03T05:08:22.952Z,43.40
2018-09-03T05:10:50.512Z,41.97
2018-09-03T05:13:18.027Z,44.93
2018-09-03T05:15:45.589Z,44.73
2018-09-03T05:18:13.178Z,51.63
2018-09-03T05:20:40.906Z,35.53
2018-09-03T05:23:08.510Z,36.60
2018-09-03T05:25:36.024Z,38.73
2018-09-03T05:28:03.626Z,36.03
2018-09-03T05:30:31.151Z,38.87
2018-09-03T05:32:58.873Z,38.50
2018-09-03T05:35:26.399Z,40.00
2018-09-03T05:37:53.928Z,44.63
2018-09-03T05:40:21.465Z,37.90
2018-09-03T05:42:49.019Z,37.30
2018-09-03T05:45:16.581Z,41.20
2018-09-03T05:47:44.138Z,40.37
2018-09-03T05:50:11.772Z,33.57
2018-09-03T05:52:39.277Z,37.77
2018-09-03T05:55:06.949Z,35.20
2018-09-03T05:57:34.510Z,22.80
2018-09-03T06:00:02.105Z,32.30
2018-09-03T06:02:29.639Z,37.77
2018-09-03T06:04:57.185Z,41.07
2018-09-03T06:07:24.755Z,35.97
2018-09-03T06:09:52.495Z,36.80
2018-09-03T06:12:20.130Z,35.73
2018-09-03T06:14:47.651Z,36.47
2018-09-03T06:17:15.222Z,39.20
2018-09-03T06:19:42.731Z,38.97
2018-09-03T06:22:10.273Z,32.57
2018-09-03T06:24:37.827Z,35.43
2018-09-03T06:27:05.367Z,34.50
2018-09-03T06:29:32.923Z,39.63
2018-09-03T06:32:00.478Z,37.23
2018-09-03T06:34:28.034Z,41.10
2018-09-03T06:36:55.655Z,24.50
2018-09-03T06:39:23.227Z,27.00
2018-09-03T06:41:50.757Z,36.13
2018-09-03T06:44:18.260Z,33.40
2018-09-03T06:46:45.838Z,36.20
2018-09-03T06:49:13.398Z,35.30
2018-09-03T06:51:40.990Z,33.70
2018-09-03T06:54:08.618Z,39.70
2018-09-03T06:56:36.145Z,33.70
2018-09-03T06:59:03.697Z,41.87
2018-09-03T07:01:31.233Z,35.93
2018-09-03T07:03:58.732Z,46.63
2018-09-03T07:06:26.284Z,38.53
2018-09-03T07:08:53.809Z,40.70
2018-09-03T07:11:21.348Z,38.67
2018-09-03T07:13:48.906Z,37.13
2018-09-03T07:16:16.509Z,38.30
2018-09-03T07:18:44.147Z,40.73
2018-09-03T07:21:11.692Z,38.67
2018-09-03T07:23:39.389Z,45.03
2018-09-03T07:26:06.969Z,38.67
2018-09-03T07:28:34.545Z,38.80
2018-09-03T07:31:02.099Z,35.83
2018-09-03T07:33:29.678Z,33.33
2018-09-03T07:35:57.198Z,38.50
2018-09-03T07:38:25.276Z,34.07
2018-09-03T07:40:52.925Z,32.30
2018-09-03T07:43:20.547Z,33.33
2018-09-03T07:45:48.172Z,33.60
2018-09-03T07:48:15.754Z,34.77
2018-09-03T07:50:43.284Z,30.60
2018-09-03T07:53:10.869Z,24.97
2018-09-03T07:55:38.383Z,25.70
2018-09-03T07:58:06.301Z,24.47
2018-09-03T08:00:33.885Z,23.50
2018-09-03T08:03:01.409Z,26.07
2018-09-03T08:05:28.967Z,24.67
2018-09-03T08:07:56.521Z,25.50
2018-09-03T08:10:24.112Z,27.80
2018-09-03T08:12:51.720Z,28.30
2018-09-03T08:15:19.253Z,28.43
2018-09-03T08:17:46.996Z,29.83
2018-09-03T08:20:14.579Z,30.33
2018-09-03T08:22:42.181Z,28.07
2018-09-03T08:25:09.773Z,29.03
2018-09-03T08:27:37.345Z,30.20
2018-09-03T08:30:05.795Z,25.90
2018-09-03T08:32:33.381Z,24.80
2018-09-03T08:35:00.984Z,26.90
2018-09-03T08:37:28.552Z,22.27
2018-09-03T08:39:56.188Z,27.93
2018-09-03T08:42:23.887Z,24.03
2018-09-03T08:44:51.511Z,23.33
2018-09-03T08:47:19.062Z,24.03
2018-09-03T08:49:46.675Z,18.83
2018-09-03T08:52:14.239Z,22.00
2018-09-03T08:54:41.907Z,24.70
2018-09-03T08:57:09.470Z,22.60
2018-09-03T08:59:37.019Z,20.10
2018-09-03T09:02:04.554Z,19.43
2018-09-03T09:04:32.121Z,23.07
2018-09-03T09:06:59.785Z,19.07
2018-09-03T09:09:27.349Z,21.30
2018-09-03T09:11:54.901Z,18.20
2018-09-03T09:14:22.477Z,23.00
2018-09-03T09:16:50.141Z,18.53
2018-09-03T09:19:17.687Z,14.53
2018-09-03T09:21:45.281Z,18.27
2018-09-03T09:24:12.826Z,24.60
2018-09-03T09:26:40.349Z,16.20
2018-09-03T09:29:07.940Z,16.33
2018-09-03T09:31:35.493Z,17.47
2018-09-03T09:34:03.103Z,15.40
2018-09-03T09:36:30.689Z,19.70
2018-09-03T09:38:58.259Z,17.93
2018-09-03T09:41:25.912Z,17.63
2018-09-03T09:43:53.487Z,18.80
2018-09-03T09:46:23.554Z,16.43
2018-09-03T09:48:51.092Z,17.27
2018-09-03T09:51:18.759Z,15.03
2018-09-03T09:53:46.375Z,15.20
2018-09-03T09:56:13.972Z,20.40
2018-09-03T09:58:41.575Z,14.07
2018-09-03T10:01:14.738Z,13.40
2018-09-03T10:03:42.276Z,18.23
2018-09-03T10:06:09.811Z,14.73
2018-09-03T10:08:37.385Z,18.67
2018-09-03T10:11:05.040Z,18.83
2018-09-03T10:13:32.653Z,16.10
2018-09-03T10:16:00.196Z,12.87
2018-09-03T10:18:27.724Z,12.23
2018-09-03T10:20:55.276Z,12.20
2018-09-03T10:23:22.879Z,11.90
2018-09-03T10:25:50.435Z,16.73
2018-09-03T10:28:17.977Z,19.17
2018-09-03T10:30:45.561Z,16.00
2018-09-03T10:33:13.120Z,14.43
2018-09-03T10:35:40.659Z,17.53
2018-09-03T10:38:08.245Z,16.17
2018-09-03T10:40:35.786Z,18.60
2018-09-03T10:43:03.349Z,20.10
2018-09-03T10:45:30.910Z,15.13
2018-09-03T10:47:58.458Z,16.00
2018-09-03T10:50:26.033Z,16.33
2018-09-03T10:52:53.571Z,16.10
2018-09-03T10:55:21.138Z,14.30
2018-09-03T10:57:48.643Z,13.97
2018-09-03T11:00:16.205Z,15.10
2018-09-03T11:02:43.793Z,13.87
2018-09-03T11:05:11.416Z,12.33
2018-09-03T11:07:39.007Z,13.27
2018-09-03T11:10:06.595Z,12.03
2018-09-03T11:12:34.583Z,14.90
2018-09-03T11:15:02.131Z,12.87
2018-09-03T11:17:29.661Z,20.93
2018-09-03T11:19:59.603Z,16.07
2018-09-03T11:22:27.291Z,20.60
2018-09-03T11:24:55.042Z,17.47
2018-09-03T11:27:22.619Z,13.40
2018-09-03T11:29:50.181Z,11.13
2018-09-03T11:32:17.744Z,13.53
2018-09-03T11:34:45.681Z,14.20
2018-09-03T11:37:13.247Z,15.90
2018-09-03T11:39:40.807Z,14.20
2018-09-03T11:42:08.353Z,13.00
2018-09-03T11:44:35.918Z,14.60
2018-09-03T11:47:03.617Z,20.13
2018-09-03T11:49:31.117Z,16.23
2018-09-03T11:51:58.676Z,15.10
2018-09-03T11:54:26.247Z,12.40
2018-09-03T11:56:53.802Z,13.53
2018-09-03T11:59:21.391Z,12.30
2018-09-03T12:01:49.003Z,14.80
2018-09-03T12:04:16.622Z,15.00
2018-09-03T12:06:44.300Z,12.10
2018-09-03T12:09:11.769Z,15.37
2018-09-03T12:11:39.356Z,13.00
2018-09-03T12:14:13.440Z,16.30
2018-09-03T12:16:41.023Z,17.67
2018-09-03T12:19:08.554Z,15.53
2018-09-03T12:21:36.072Z,13.40
2018-09-03T12:24:03.672Z,15.70
2018-09-03T12:26:31.228Z,14.87
2018-09-03T12:28:58.798Z,14.87
2018-09-03T12:31:26.432Z,14.80
2018-09-03T12:33:53.908Z,16.63
2018-09-03T12:36:21.490Z,12.73
2018-09-03T12:38:49.014Z,13.30
2018-09-03T12:41:16.618Z,10.60
2018-09-03T12:43:44.244Z,14.00
2018-09-03T12:46:11.844Z,8.67
2018-09-03T12:48:39.601Z,10.63
2018-09-03T12:51:07.219Z,10.23
2018-09-03T12:53:34.764Z,10.90
2018-09-03T12:56:02.893Z,11.00
2018-09-03T12:58:30.522Z,9.17
2018-09-03T13:00:58.092Z,9.73
2018-09-03T13:03:25.628Z,11.40
2018-09-03T13:05:53.193Z,19.00
2018-09-03T13:08:20.744Z,9.90
2018-09-03T13:10:48.301Z,7.60
2018-09-03T13:13:15.865Z,10.83
2018-09-03T13:15:43.411Z,9.37
2018-09-03T13:18:11.033Z,6.77
2018-09-03T13:20:38.609Z,9.27
2018-09-03T13:23:06.133Z,9.07
2018-09-03T13:25:33.647Z,11.00
2018-09-03T13:28:01.259Z,10.70
2018-09-03T13:30:28.803Z,13.43
2018-09-03T13:32:56.423Z,12.87
2018-09-03T13:35:24.279Z,12.63
2018-09-03T13:37:51.854Z,14.00
2018-09-03T13:40:19.416Z,9.83
2018-09-03T13:42:46.956Z,11.83
2018-09-03T13:45:14.565Z,10.73
2018-09-03T13:47:42.131Z,11.13
2018-09-03T13:50:09.800Z,10.77
2018-09-03T13:52:37.362Z,10.03
2018-09-03T13:55:05.280Z,16.63
2018-09-03T13:57:32.788Z,26.77
2018-09-03T14:00:00.356Z,25.87
2018-09-03T14:02:27.923Z,15.23
2018-09-03T14:04:55.593Z,11.87
2018-09-03T14:07:23.188Z,10.73
2018-09-03T14:09:50.817Z,9.83
2018-09-03T14:12:18.425Z,8.80
2018-09-03T14:14:45.980Z,10.80
2018-09-03T14:17:13.610Z,12.50
2018-09-03T14:19:41.188Z,13.80
2018-09-03T14:22:08.774Z,11.87
2018-09-03T14:24:36.321Z,12.70
2018-09-03T14:27:03.879Z,9.90
2018-09-03T14:29:31.406Z,11.70
2018-09-03T14:31:58.960Z,10.43
2018-09-03T14:34:26.490Z,14.20
2018-09-03T14:36:54.159Z,9.93
2018-09-03T14:39:21.654Z,13.77
2018-09-03T14:41:49.347Z,11.87
2018-09-03T14:44:16.947Z,9.80
2018-09-03T14:46:44.554Z,11.63
2018-09-03T14:49:12.111Z,8.70
2018-09-03T14:51:39.662Z,13.50
2018-09-03T14:54:07.182Z,10.70
2018-09-03T14:56:34.808Z,9.90
2018-09-03T14:59:02.534Z,13.63
2018-09-03T15:01:30.234Z,10.03
2018-09-03T15:03:57.854Z,9.93
2018-09-03T15:06:25.428Z,13.40
2018-09-03T15:08:52.962Z,10.60
2018-09-03T15:11:20.577Z,8.80
2018-09-03T15:13:52.841Z,10.57
2018-09-03T15:16:20.409Z,8.37
2018-09-03T15:18:48.011Z,10.90
2018-09-03T15:21:15.573Z,9.83
2018-09-03T15:23:43.125Z,7.70
2018-09-03T15:26:10.832Z,11.77
2018-09-03T15:28:38.347Z,6.90
2018-09-03T15:31:05.931Z,6.60
2018-09-03T15:33:33.553Z,8.03
2018-09-03T15:36:01.231Z,6.50
2018-09-03T15:38:28.739Z,11.50
2018-09-03T15:40:56.311Z,9.27
2018-09-03T15:43:23.961Z,8.90
2018-09-03T15:45:51.493Z,12.00
2018-09-03T15:48:19.183Z,5.87
2018-09-03T15:50:46.891Z,8.03
2018-09-03T15:53:14.455Z,8.30
2018-09-03T15:55:42.023Z,5.07
2018-09-03T15:58:09.633Z,9.00
2018-09-03T16:00:37.238Z,7.00
2018-09-03T16:03:04.884Z,5.50
2018-09-03T16:05:32.528Z,5.23
2018-09-03T16:08:00.166Z,7.10
2018-09-03T16:10:27.753Z,7.43
2018-09-03T16:12:55.295Z,4.30
2018-09-03T16:15:22.886Z,7.13
2018-09-03T16:17:50.539Z,9.03
2018-09-03T16:20:18.125Z,7.27
2018-09-03T16:22:45.727Z,6.13
2018-09-03T16:25:13.353Z,7.23
2018-09-03T16:27:40.937Z,5.40
2018-09-03T16:30:08.523Z,7.47
2018-09-03T16:32:36.085Z,5.13
2018-09-03T16:35:03.692Z,11.47
2018-09-03T16:37:31.243Z,13.07
2018-09-03T16:39:58.782Z,6.00
2018-09-03T16:42:26.316Z,4.77
2018-09-03T16:44:53.871Z,7.77
2018-09-03T16:47:21.489Z,12.20
2018-09-03T16:49:49.038Z,8.53
2018-09-03T16:52:16.591Z,8.47
2018-09-03T16:54:44.171Z,6.23
2018-09-03T16:57:11.799Z,7.47
2018-09-03T16:59:39.519Z,5.80
2018-09-03T17:02:07.166Z,6.23
2018-09-03T17:04:34.812Z,6.23
2018-09-03T17:07:02.500Z,7.17
2018-09-03T17:09:30.093Z,5.53
2018-09-03T17:11:57.694Z,6.67
2018-09-03T17:14:25.253Z,14.83
2018-09-03T17:16:52.811Z,5.00
2018-09-03T17:19:20.389Z,5.77
2018-09-03T17:21:48.018Z,7.30
2018-09-03T17:24:15.607Z,6.60
2018-09-03T17:26:43.910Z,7.53
2018-09-03T17:29:11.435Z,7.40
2018-09-03T17:31:39.272Z,7.33
2018-09-03T17:34:06.958Z,7.97
2018-09-03T17:36:34.601Z,6.43
2018-09-03T17:39:02.272Z,4.67
2018-09-03T17:41:29.832Z,8.03
2018-09-03T17:43:57.435Z,8.10
2018-09-03T17:46:27.133Z,6.07
2018-09-03T17:48:54.817Z,5.43
2018-09-03T17:51:22.459Z,7.07
2018-09-03T17:53:50.083Z,8.53
2018-09-03T17:56:17.677Z,6.87
2018-09-03T17:58:45.361Z,6.50
2018-09-03T18:01:12.955Z,8.27
2018-09-03T18:03:40.611Z,7.63
2018-09-03T18:06:08.337Z,6.90
2018-09-03T18:08:35.999Z,6.40
2018-09-03T18:11:03.747Z,5.07
2018-09-03T18:13:31.409Z,8.23
2018-09-03T18:15:59.095Z,4.93
2018-09-03T18:18:27.121Z,6.77
2018-09-03T18:20:54.818Z,6.00
2018-09-03T18:23:22.543Z,4.97
2018-09-03T18:25:50.192Z,15.50
2018-09-03T18:28:17.925Z,6.20
2018-09-03T18:30:45.713Z,6.13
2018-09-03T18:33:13.345Z,10.40
2018-09-03T18:35:41.947Z,8.17
2018-09-03T18:38:09.904Z,5.83
2018-09-03T18:40:37.705Z,7.70
2018-09-03T18:43:05.559Z,6.83
2018-09-03T18:45:33.246Z,4.70
2018-09-03T18:48:00.918Z,6.80
2018-09-03T18:50:28.552Z,10.23
2018-09-03T18:52:56.610Z,7.90
2018-09-03T18:55:24.318Z,8.97
2018-09-03T18:57:52.252Z,5.53
2018-09-03T19:00:20.012Z,7.90
2018-09-03T19:02:47.686Z,15.80
2018-09-03T19:05:16.557Z,6.20
2018-09-03T19:07:44.246Z,8.70
2018-09-03T19:10:11.966Z,8.47
2018-09-03T19:12:39.670Z,9.00
2018-09-03T19:15:07.753Z,10.63
2018-09-03T19:17:35.453Z,8.17
2018-09-03T19:20:03.242Z,11.27
2018-09-03T19:22:31.112Z,7.73
2018-09-03T19:24:59.772Z,9.40
2018-09-03T19:27:27.914Z,7.50
2018-09-03T19:29:55.940Z,9.17
2018-09-03T19:32:23.681Z,11.10
2018-09-03T19:34:51.461Z,12.63
2018-09-03T19:37:19.193Z,11.73
2018-09-03T19:39:46.887Z,13.30
2018-09-03T19:42:14.683Z,10.50
2018-09-03T19:44:42.413Z,15.67
2018-09-03T19:47:10.366Z,13.87
2018-09-03T19:49:38.027Z,13.20
2018-09-03T19:52:06.456Z,10.53
2018-09-03T19:54:35.097Z,15.83
2018-09-03T19:57:03.133Z,10.47
2018-09-03T19:59:30.925Z,12.40
2018-09-03T20:01:58.708Z,11.10
2018-09-03T20:04:26.373Z,10.07
2018-09-03T20:06:54.735Z,9.40
2018-09-03T20:09:22.488Z,13.57
2018-09-03T20:11:50.280Z,14.43
2018-09-03T20:14:18.079Z,13.50
2018-09-03T20:16:45.762Z,13.63
2018-09-03T20:19:13.410Z,12.17
2018-09-03T20:21:41.116Z,10.60
2018-09-03T20:24:08.845Z,10.13
2018-09-03T20:26:36.513Z,11.77
2018-09-03T20:29:04.242Z,9.27
2018-09-03T20:31:32.029Z,18.73
2018-09-03T20:33:59.703Z,9.30
2018-09-03T20:36:27.395Z,9.20
2018-09-03T20:38:55.078Z,9.87
2018-09-03T20:41:23.096Z,9.00
2018-09-03T20:43:51.029Z,8.70
2018-09-03T20:46:19.119Z,8.93
2018-09-03T20:48:46.862Z,9.77
2018-09-03T20:51:14.532Z,11.27
2018-09-03T20:53:42.211Z,11.07
2018-09-03T20:56:09.904Z,11.43
2018-09-03T20:58:37.610Z,15.47
2018-09-03T21:01:05.477Z,11.20
2018-09-03T21:03:33.283Z,10.53
2018-09-03T21:06:00.985Z,9.57
2018-09-03T21:08:28.785Z,11.37
2018-09-03T21:10:56.497Z,10.50
2018-09-03T21:13:24.170Z,10.83
2018-09-03T21:15:51.833Z,8.83
2018-09-03T21:18:19.466Z,11.70
2018-09-03T21:20:47.075Z,9.70
2018-09-03T21:23:14.671Z,9.20
2018-09-03T21:25:42.296Z,12.50
2018-09-03T21:28:09.851Z,16.20
2018-09-03T21:30:37.529Z,12.70
2018-09-03T21:33:05.122Z,12.27
2018-09-03T21:35:32.799Z,11.93
2018-09-03T21:38:00.389Z,13.37
2018-09-03T21:40:27.939Z,15.77
2018-09-03T21:42:55.452Z,11.73
2018-09-03T21:45:23.034Z,18.50
2018-09-03T21:47:50.653Z,14.00
2018-09-03T21:50:18.270Z,13.00
2018-09-03T21:52:45.808Z,12.60
2018-09-03T21:55:13.443Z,11.60
2018-09-03T21:57:41.013Z,12.87
2018-09-03T22:00:08.872Z,13.13
2018-09-03T22:02:36.468Z,14.67
2018-09-03T22:05:04.578Z,10.27
2018-09-03T22:07:32.129Z,11.87
2018-09-03T22:10:00.541Z,11.77
2018-09-03T22:12:28.128Z,11.60
2018-09-03T22:14:55.658Z,11.27
2018-09-03T22:17:23.237Z,10.47
2018-09-03T22:19:50.845Z,11.23
2018-09-03T22:22:18.423Z,12.03
2018-09-03T22:24:45.953Z,13.50
2018-09-03T22:27:13.513Z,11.60
2018-09-03T22:29:41.038Z,13.90
2018-09-03T22:32:08.611Z,14.37
2018-09-03T22:34:36.253Z,15.20
2018-09-03T22:37:03.916Z,14.70
2018-09-03T22:39:31.482Z,14.10
2018-09-03T22:41:59.039Z,15.50
2018-09-03T22:44:26.580Z,14.43
2018-09-03T22:46:54.195Z,16.07
2018-09-03T22:49:21.749Z,11.90
2018-09-03T22:51:49.279Z,12.07
2018-09-03T22:54:16.801Z,14.80
2018-09-03T22:56:44.431Z,10.33
2018-09-03T22:59:11.983Z,13.10
2018-09-03T23:01:39.511Z,11.20
2018-09-03T23:04:07.063Z,12.63
2018-09-03T23:06:34.639Z,12.60
2018-09-03T23:09:02.393Z,13.23
2018-09-03T23:11:29.953Z,14.97
2018-09-03T23:13:57.533Z,14.03
2018-09-03T23:16:25.111Z,13.83
2018-09-03T23:18:52.657Z,12.27
2018-09-03T23:21:20.336Z,13.77
2018-09-03T23:23:47.909Z,16.93
2018-09-03T23:26:15.429Z,16.23
2018-09-03T23:28:43.054Z,18.83
2018-09-03T23:31:10.619Z,14.83
2018-09-03T23:33:38.137Z,15.10
2018-09-03T23:36:05.665Z,18.57
2018-09-03T23:38:33.285Z,18.20
2018-09-03T23:41:00.851Z,24.23
2018-09-03T23:43:28.420Z,20.47
2018-09-03T23:45:55.956Z,28.40
2018-09-03T23:48:23.515Z,22.07
2018-09-03T23:50:51.129Z,20.27
2018-09-03T23:53:18.781Z,22.23
2018-09-03T23:55:46.418Z,19.53
2018-09-03T23:58:14.010Z,24.33
